createdAt,value
2023-05-21T00:00:10.787Z,87.80
2023-05-21T00:00:43.646Z,86.89
2023-05-21T00:01:16.397Z,86.93
2023-05-21T00:01:48.559Z,86.83
2023-05-21T00:02:20.993Z,86.30
2023-05-21T00:02:52.693Z,86.39
2023-05-21T00:03:27.157Z,87.08
2023-05-21T00:03:59.824Z,86.62
2023-05-21T00:04:31.823Z,86.72
2023-05-21T00:05:04.075Z,87.50
2023-05-21T00:05:37.683Z,87.29
2023-05-21T00:06:09.780Z,87.09
2023-05-21T00:06:41.525Z,87.06
2023-05-21T00:07:13.470Z,87.24
2023-05-21T00:07:47.181Z,85.74
2023-05-21T00:08:18.875Z,86.16
2023-05-21T00:08:50.667Z,87.43
2023-05-21T00:09:22.252Z,87.17
2023-05-21T00:09:53.811Z,87.51
2023-05-21T00:10:28.067Z,87.47
2023-05-21T00:11:24.884Z,86.99
2023-05-21T00:11:56.484Z,87.39
2023-05-21T00:12:28.068Z,88.00
2023-05-21T00:13:00.003Z,87.34
2023-05-21T00:13:31.615Z,87.43
2023-05-21T00:14:03.191Z,87.32
2023-05-21T00:14:35.311Z,87.10
2023-05-21T00:15:07.900Z,87.45
2023-05-21T00:15:39.717Z,87.42
2023-05-21T00:16:11.542Z,87.84
2023-05-21T00:16:45.115Z,87.28
2023-05-21T00:17:18.003Z,87.33
2023-05-21T00:17:49.657Z,87.60
2023-05-21T00:18:22.232Z,87.35
2023-05-21T00:18:54.702Z,86.49
2023-05-21T00:19:27.234Z,87.06
2023-05-21T00:20:00.153Z,87.39
2023-05-21T00:20:32.488Z,87.42
2023-05-21T00:21:04.207Z,87.20
2023-05-21T00:21:35.860Z,87.86
2023-05-21T00:22:16.897Z,87.81
2023-05-21T00:22:48.471Z,87.61
2023-05-21T00:23:21.496Z,87.50
2023-05-21T00:23:56.847Z,87.67
2023-05-21T00:24:29.379Z,87.51
2023-05-21T00:25:03.693Z,87.58
2023-05-21T00:25:35.607Z,87.58
2023-05-21T00:26:07.634Z,87.82
2023-05-21T00:26:39.271Z,87.67
2023-05-21T00:27:12.857Z,87.82
2023-05-21T00:27:44.416Z,87.52
2023-05-21T00:28:16.121Z,88.34
2023-05-21T00:28:48.468Z,88.93
2023-05-21T00:29:20.750Z,89.09
2023-05-21T00:29:52.462Z,88.56
2023-05-21T00:30:24.099Z,88.90
2023-05-21T00:30:56.065Z,88.64
2023-05-21T00:31:28.054Z,87.86
2023-05-21T00:31:59.765Z,87.63
2023-05-21T00:32:31.569Z,87.29
2023-05-21T00:33:04.156Z,87.73
2023-05-21T00:33:35.798Z,87.70
2023-05-21T00:34:07.447Z,87.80
2023-05-21T00:34:39.134Z,87.33
2023-05-21T00:35:10.804Z,87.77
2023-05-21T00:35:42.531Z,87.48
2023-05-21T00:36:14.580Z,87.36
2023-05-21T00:36:46.620Z,87.40
2023-05-21T00:37:18.355Z,87.26
2023-05-21T00:37:50.191Z,87.02
2023-05-21T00:38:22.186Z,87.34
2023-05-21T00:38:53.830Z,86.94
2023-05-21T00:39:25.475Z,87.30
2023-05-21T00:39:58.289Z,88.38
2023-05-21T00:40:30.987Z,87.43
2023-05-21T00:41:02.975Z,87.35
2023-05-21T00:41:35.383Z,88.20
2023-05-21T00:42:07.137Z,87.61
2023-05-21T00:42:39.495Z,87.84
2023-05-21T00:43:11.118Z,88.12
2023-05-21T00:43:44.612Z,88.03
2023-05-21T00:44:18.283Z,88.45
2023-05-21T00:44:49.886Z,88.93
2023-05-21T00:45:24.043Z,89.10
2023-05-21T00:45:56.563Z,88.55
2023-05-21T00:46:31.363Z,88.26
2023-05-21T00:47:03.656Z,88.63
2023-05-21T00:47:35.795Z,88.74
2023-05-21T00:48:08.007Z,89.33
2023-05-21T00:48:40.405Z,88.71
2023-05-21T00:49:12.245Z,88.87
2023-05-21T00:49:43.900Z,89.80
2023-05-21T00:50:17.593Z,89.04
2023-05-21T00:50:51.153Z,88.26
2023-05-21T00:51:22.824Z,88.09
2023-05-21T00:51:54.948Z,88.47
2023-05-21T00:52:27.283Z,88.28
2023-05-21T00:52:59.827Z,88.88
2023-05-21T00:53:31.627Z,88.27
2023-05-21T00:54:03.783Z,88.09
2023-05-21T00:54:35.632Z,88.09
2023-05-21T00:55:08.520Z,87.89
2023-05-21T00:55:40.884Z,88.85
2023-05-21T00:56:12.687Z,87.95
2023-05-21T00:56:44.355Z,88.65
2023-05-21T00:57:20.643Z,88.96
2023-05-21T00:57:52.238Z,89.11
2023-05-21T00:58:24.277Z,89.50
2023-05-21T00:58:58.929Z,89.50
2023-05-21T00:59:31.317Z,89.68
2023-05-21T01:00:04.755Z,88.60
2023-05-21T01:00:37.503Z,88.54
2023-05-21T01:01:13.707Z,89.26
2023-05-21T01:01:46.044Z,89.20
2023-05-21T01:02:18.435Z,89.41
2023-05-21T01:02:50.724Z,88.36
2023-05-21T01:03:23.176Z,89.08
2023-05-21T01:03:58.111Z,89.00
2023-05-21T01:04:31.519Z,88.79
2023-05-21T01:05:07.133Z,89.13
2023-05-21T01:05:39.088Z,88.70
2023-05-21T01:06:11.644Z,89.21
2023-05-21T01:06:43.325Z,88.84
2023-05-21T01:07:14.926Z,89.22
2023-05-21T01:07:46.721Z,90.22
2023-05-21T01:08:20.790Z,89.74
2023-05-21T01:08:52.479Z,90.49
2023-05-21T01:09:26.828Z,90.51
2023-05-21T01:09:58.470Z,90.24
2023-05-21T01:10:30.847Z,89.80
2023-05-21T01:11:04.290Z,90.42
2023-05-21T01:11:41.210Z,90.03
2023-05-21T01:12:13.340Z,90.60
2023-05-21T01:12:46.697Z,90.18
2023-05-21T01:13:18.594Z,89.71
2023-05-21T01:13:50.487Z,89.65
2023-05-21T01:14:22.799Z,90.47
2023-05-21T01:14:54.853Z,90.07
2023-05-21T01:15:27.408Z,90.54
2023-05-21T01:15:59.775Z,89.36
2023-05-21T01:16:32.371Z,89.88
2023-05-21T01:17:08.671Z,90.26
2023-05-21T01:17:41.450Z,90.07
2023-05-21T01:18:14.381Z,90.62
2023-05-21T01:18:46.690Z,90.70
2023-05-21T01:19:21.894Z,90.42
2023-05-21T01:19:54.721Z,89.63
2023-05-21T01:20:27.229Z,90.17
2023-05-21T01:21:00.752Z,89.84
2023-05-21T01:21:36.041Z,90.06
2023-05-21T01:22:08.264Z,90.27
2023-05-21T01:22:53.473Z,89.48
2023-05-21T01:23:25.350Z,89.23
2023-05-21T01:23:57.045Z,89.88
2023-05-21T01:24:28.668Z,89.46
2023-05-21T01:25:02.784Z,89.12
2023-05-21T01:25:35.562Z,89.85
2023-05-21T01:26:07.445Z,89.38
2023-05-21T01:26:42.694Z,89.56
2023-05-21T01:27:14.271Z,90.31
2023-05-21T01:27:45.967Z,90.46
2023-05-21T01:28:17.641Z,91.01
2023-05-21T01:28:49.304Z,91.20
2023-05-21T01:29:21.037Z,90.31
2023-05-21T01:29:52.664Z,91.23
2023-05-21T01:30:24.935Z,91.06
2023-05-21T01:30:59.343Z,91.10
2023-05-21T01:31:37.142Z,90.56
2023-05-21T01:32:34.140Z,90.99
2023-05-21T01:33:41.314Z,89.62
2023-05-21T01:34:13.951Z,91.24
2023-05-21T01:34:58.139Z,91.04
2023-05-21T01:35:35.866Z,91.11
2023-05-21T01:36:07.721Z,90.95
2023-05-21T01:36:43.855Z,91.15
2023-05-21T01:37:23.004Z,90.85
2023-05-21T01:38:00.483Z,90.60
2023-05-21T01:38:42.831Z,90.96
2023-05-21T01:39:20.608Z,91.84
2023-05-21T01:39:56.140Z,91.40
2023-05-21T01:40:53.093Z,91.49
2023-05-21T01:41:26.258Z,91.40
2023-05-21T01:41:58.219Z,90.62
2023-05-21T01:42:30.489Z,90.44
2023-05-21T01:43:03.944Z,91.20
2023-05-21T01:43:40.025Z,90.94
2023-05-21T01:44:12.339Z,90.68
2023-05-21T01:44:45.096Z,90.61
2023-05-21T01:45:17.824Z,89.92
2023-05-21T01:45:52.687Z,90.38
2023-05-21T01:46:26.990Z,89.45
2023-05-21T01:46:59.587Z,89.47
2023-05-21T01:47:32.166Z,89.57
2023-05-21T01:48:05.907Z,90.01
2023-05-21T01:48:38.623Z,90.70
2023-05-21T01:49:11.415Z,90.41
2023-05-21T01:49:43.171Z,89.44
2023-05-21T01:50:16.246Z,90.76
2023-05-21T01:50:50.177Z,90.48
2023-05-21T01:51:21.900Z,90.95
2023-05-21T01:51:53.593Z,90.79
2023-05-21T01:52:25.320Z,90.03
2023-05-21T01:52:57.041Z,89.51
2023-05-21T01:53:29.043Z,89.96
2023-05-21T01:54:01.682Z,90.18
2023-05-21T01:54:33.463Z,90.56
2023-05-21T01:55:06.495Z,90.55
2023-05-21T01:55:41.973Z,89.79
2023-05-21T01:56:15.897Z,89.76
2023-05-21T01:56:48.037Z,89.42
2023-05-21T01:57:20.374Z,89.84
2023-05-21T01:57:53.619Z,89.67
2023-05-21T01:58:25.537Z,90.31
2023-05-21T01:58:59.679Z,89.91
2023-05-21T01:59:31.425Z,90.09
2023-05-21T02:00:05.348Z,90.22
2023-05-21T02:00:47.268Z,90.94
2023-05-21T02:01:19.155Z,90.22
2023-05-21T02:01:51.053Z,89.76
2023-05-21T02:02:22.646Z,89.76
2023-05-21T02:02:54.564Z,89.44
2023-05-21T02:03:28.095Z,90.26
2023-05-21T02:03:59.986Z,90.71
2023-05-21T02:04:31.787Z,89.99
2023-05-21T02:05:04.120Z,89.66
2023-05-21T02:05:35.958Z,89.87
2023-05-21T02:06:07.906Z,89.99
2023-05-21T02:06:39.727Z,90.29
2023-05-21T02:07:14.476Z,90.41
2023-05-21T02:07:47.389Z,91.18
2023-05-21T02:08:20.094Z,89.97
2023-05-21T02:08:52.012Z,90.86
2023-05-21T02:09:23.935Z,90.83
2023-05-21T02:09:55.557Z,91.14
2023-05-21T02:10:27.354Z,90.91
2023-05-21T02:10:59.068Z,90.75
2023-05-21T02:11:30.726Z,91.25
2023-05-21T02:12:03.362Z,91.06
2023-05-21T02:12:34.988Z,90.79
2023-05-21T02:13:06.634Z,91.48
2023-05-21T02:13:42.797Z,91.30
2023-05-21T02:14:14.500Z,91.67
2023-05-21T02:14:50.336Z,92.14
2023-05-21T02:15:22.522Z,92.54
2023-05-21T02:15:54.975Z,92.04
2023-05-21T02:16:27.865Z,92.27
2023-05-21T02:17:03.197Z,92.26
2023-05-21T02:17:35.463Z,91.82
2023-05-21T02:18:08.575Z,91.57
2023-05-21T02:18:44.774Z,92.31
2023-05-21T02:19:16.549Z,92.60
2023-05-21T02:19:48.304Z,91.91
2023-05-21T02:20:22.724Z,91.79
2023-05-21T02:20:54.456Z,93.01
2023-05-21T02:21:26.350Z,92.66
2023-05-21T02:21:57.981Z,92.62
2023-05-21T02:22:29.782Z,93.06
2023-05-21T02:23:01.369Z,92.96
2023-05-21T02:23:33.169Z,93.10
2023-05-21T02:24:05.007Z,93.67
2023-05-21T02:24:36.714Z,93.34
2023-05-21T02:25:09.424Z,93.72
2023-05-21T02:25:41.040Z,93.82
2023-05-21T02:26:12.620Z,93.47
2023-05-21T02:26:44.254Z,93.09
2023-05-21T02:27:17.657Z,93.20
2023-05-21T02:27:53.552Z,93.71
2023-05-21T02:28:25.383Z,93.44
2023-05-21T02:28:56.979Z,93.39
2023-05-21T02:29:29.188Z,93.79
2023-05-21T02:30:01.508Z,94.23
2023-05-21T02:30:33.156Z,94.17
2023-05-21T02:31:04.901Z,94.45
2023-05-21T02:31:36.969Z,94.40
2023-05-21T02:32:09.571Z,93.80
2023-05-21T02:32:42.537Z,94.17
2023-05-21T02:33:15.813Z,93.81
2023-05-21T02:33:47.448Z,93.14
2023-05-21T02:34:20.659Z,93.87
2023-05-21T02:34:53.182Z,94.08
2023-05-21T02:35:24.831Z,93.68
2023-05-21T02:35:56.479Z,93.91
2023-05-21T02:36:28.919Z,93.53
2023-05-21T02:37:01.725Z,94.19
2023-05-21T02:37:35.048Z,94.45
2023-05-21T02:38:09.185Z,94.20
2023-05-21T02:38:43.787Z,94.70
2023-05-21T02:39:15.683Z,94.17
2023-05-21T02:39:47.304Z,93.88
2023-05-21T02:40:18.893Z,93.91
2023-05-21T02:40:53.365Z,94.00
2023-05-21T02:41:25.154Z,94.38
2023-05-21T02:41:56.742Z,94.82
2023-05-21T02:42:29.211Z,94.52
2023-05-21T02:43:00.958Z,94.71
2023-05-21T02:43:34.555Z,95.23
2023-05-21T02:44:06.219Z,94.99
2023-05-21T02:44:37.803Z,95.31
2023-05-21T02:45:11.126Z,95.51
2023-05-21T02:45:44.190Z,95.62
2023-05-21T02:46:16.022Z,95.90
2023-05-21T02:46:47.666Z,95.44
2023-05-21T02:47:22.344Z,95.66
2023-05-21T02:47:54.082Z,95.56
2023-05-21T02:48:25.710Z,95.81
2023-05-21T02:48:57.342Z,96.14
2023-05-21T02:49:28.952Z,95.55
2023-05-21T02:50:01.879Z,95.97
2023-05-21T02:50:34.471Z,96.05
2023-05-21T02:51:06.172Z,96.45
2023-05-21T02:51:37.920Z,95.94
2023-05-21T02:52:09.807Z,96.58
2023-05-21T02:52:41.871Z,96.56
2023-05-21T02:53:13.553Z,96.45
2023-05-21T02:53:45.179Z,96.53
2023-05-21T02:54:16.763Z,96.59
2023-05-21T02:54:48.948Z,96.75
2023-05-21T02:55:20.815Z,96.98
2023-05-21T02:55:52.530Z,96.33
2023-05-21T02:56:24.848Z,96.52
2023-05-21T02:56:56.828Z,96.73
2023-05-21T02:57:28.540Z,96.66
2023-05-21T02:58:00.147Z,96.64
2023-05-21T02:58:32.010Z,96.74
2023-05-21T02:59:03.734Z,97.01
2023-05-21T02:59:35.375Z,96.08
2023-05-21T03:00:09.249Z,96.20
2023-05-21T03:00:41.882Z,96.60
2023-05-21T03:01:13.581Z,97.43
2023-05-21T03:01:45.266Z,97.24
2023-05-21T03:02:17.189Z,96.65
2023-05-21T03:02:48.882Z,97.36
2023-05-21T03:03:20.768Z,97.87
2023-05-21T03:03:52.590Z,97.07
2023-05-21T03:04:25.149Z,97.63
2023-05-21T03:04:56.958Z,97.97
2023-05-21T03:05:28.544Z,97.99
2023-05-21T03:06:00.160Z,97.61
2023-05-21T03:06:32.835Z,97.68
2023-05-21T03:07:06.940Z,97.75
2023-05-21T03:07:38.567Z,97.17
2023-05-21T03:08:10.388Z,97.53
2023-05-21T03:08:41.977Z,97.36
2023-05-21T03:09:13.796Z,97.82
2023-05-21T03:09:45.693Z,97.32
2023-05-21T03:10:17.577Z,98.37
2023-05-21T03:10:49.144Z,98.09
2023-05-21T03:11:22.526Z,98.28
2023-05-21T03:11:54.084Z,98.08
2023-05-21T03:12:25.750Z,98.26
2023-05-21T03:12:57.332Z,97.73
2023-05-21T03:13:29.157Z,98.38
2023-05-21T03:14:01.018Z,98.41
2023-05-21T03:14:32.663Z,98.76
2023-05-21T03:15:04.642Z,99.14
2023-05-21T03:15:36.502Z,99.49
2023-05-21T03:16:08.732Z,100.00
2023-05-21T03:16:41.916Z,100.00
2023-05-21T03:17:17.165Z,100.00
2023-05-21T03:17:48.858Z,100.00
2023-05-21T03:18:20.461Z,100.00
2023-05-21T03:18:52.439Z,100.00
2023-05-21T03:19:24.926Z,100.00
2023-05-21T03:19:56.965Z,100.00
2023-05-21T03:20:29.032Z,100.00
2023-05-21T03:21:01.159Z,100.00
2023-05-21T03:21:33.846Z,100.00
2023-05-21T03:22:05.699Z,100.00
2023-05-21T03:22:40.956Z,100.00
2023-05-21T03:23:15.719Z,100.00
2023-05-21T03:23:51.475Z,100.00
2023-05-21T03:24:23.438Z,100.00
2023-05-21T03:24:55.094Z,100.00
2023-05-21T03:25:29.235Z,100.00
2023-05-21T03:26:02.203Z,100.00
2023-05-21T03:26:33.896Z,100.00
2023-05-21T03:27:08.454Z,100.00
2023-05-21T03:27:40.069Z,100.00
2023-05-21T03:28:21.016Z,100.00
2023-05-21T03:28:54.176Z,100.00
2023-05-21T03:29:26.199Z,100.00
2023-05-21T03:29:59.488Z,100.00
2023-05-21T03:30:31.792Z,100.00
2023-05-21T03:31:34.769Z,100.00
2023-05-21T03:32:17.473Z,100.00
2023-05-21T03:32:51.453Z,100.00
2023-05-21T03:33:23.178Z,100.00
2023-05-21T03:33:54.829Z,100.00
2023-05-21T03:34:30.245Z,100.00
2023-05-21T03:35:01.915Z,100.00
2023-05-21T03:35:34.046Z,100.00
2023-05-21T03:36:06.071Z,100.00
2023-05-21T03:36:41.171Z,100.00
2023-05-21T03:37:13.087Z,100.00
2023-05-21T03:37:44.708Z,100.00
2023-05-21T03:38:16.610Z,100.00
2023-05-21T03:38:48.241Z,100.00
2023-05-21T03:39:19.991Z,100.00
2023-05-21T03:39:53.570Z,100.00
2023-05-21T03:40:25.290Z,100.00
2023-05-21T03:40:57.097Z,100.00
2023-05-21T03:41:28.840Z,100.00
2023-05-21T03:42:06.971Z,100.00
2023-05-21T03:42:48.445Z,100.00
2023-05-21T03:43:20.138Z,100.00
2023-05-21T03:43:51.779Z,100.00
2023-05-21T03:44:25.638Z,100.00
2023-05-21T03:45:03.927Z,100.00
2023-05-21T03:45:54.825Z,100.00
2023-05-21T03:46:45.636Z,100.00
2023-05-21T03:47:36.271Z,100.00
2023-05-21T03:48:10.215Z,100.00
2023-05-21T03:48:41.944Z,100.00
2023-05-21T03:49:15.940Z,100.00
2023-05-21T03:49:47.835Z,100.00
2023-05-21T03:50:19.454Z,100.00
2023-05-21T03:50:51.484Z,100.00
2023-05-21T03:51:23.123Z,100.00
2023-05-21T03:51:54.875Z,100.00
2023-05-21T03:52:27.575Z,100.00
2023-05-21T03:52:59.281Z,100.00
2023-05-21T03:53:33.970Z,100.00
2023-05-21T03:54:05.826Z,100.00
2023-05-21T03:54:38.343Z,100.00
2023-05-21T03:55:12.785Z,100.00
2023-05-21T03:55:44.598Z,100.00
2023-05-21T03:56:16.280Z,100.00
2023-05-21T03:56:47.956Z,100.00
2023-05-21T03:57:19.733Z,100.00
2023-05-21T03:57:52.418Z,100.00
2023-05-21T03:58:24.606Z,100.00
2023-05-21T03:58:56.184Z,100.00
2023-05-21T03:59:28.016Z,100.00
2023-05-21T04:00:00.690Z,100.00
2023-05-21T04:00:37.447Z,100.00
2023-05-21T04:01:10.880Z,100.00
2023-05-21T04:01:42.821Z,100.00
2023-05-21T04:02:17.866Z,100.00
2023-05-21T04:02:49.635Z,100.00
2023-05-21T04:03:22.611Z,100.00
2023-05-21T04:03:54.393Z,100.00
2023-05-21T04:04:29.529Z,100.00
2023-05-21T04:05:01.648Z,100.00
2023-05-21T04:05:36.130Z,100.00
2023-05-21T04:06:10.175Z,100.00
2023-05-21T04:06:43.249Z,100.00
2023-05-21T04:07:19.242Z,100.00
2023-05-21T04:07:50.811Z,100.00
2023-05-21T04:08:22.395Z,100.00
2023-05-21T04:08:54.003Z,100.00
2023-05-21T04:09:25.597Z,100.00
2023-05-21T04:09:57.220Z,100.00
2023-05-21T04:10:28.844Z,100.00
2023-05-21T04:11:00.481Z,100.00
2023-05-21T04:11:32.310Z,100.00
2023-05-21T04:12:07.927Z,100.00
2023-05-21T04:12:42.074Z,100.00
2023-05-21T04:13:13.696Z,100.00
2023-05-21T04:13:46.278Z,100.00
2023-05-21T04:14:17.956Z,100.00
2023-05-21T04:14:49.698Z,100.00
2023-05-21T04:15:21.459Z,100.00
2023-05-21T04:15:54.487Z,100.00
2023-05-21T04:16:26.150Z,100.00
2023-05-21T04:16:58.149Z,100.00
2023-05-21T04:17:29.905Z,100.00
2023-05-21T04:18:01.881Z,100.00
2023-05-21T04:18:34.277Z,100.00
2023-05-21T04:19:06.649Z,100.00
2023-05-21T04:19:38.787Z,100.00
2023-05-21T04:20:11.953Z,100.00
2023-05-21T04:20:43.753Z,100.00
2023-05-21T04:21:15.439Z,100.00
2023-05-21T04:21:47.002Z,100.00
2023-05-21T04:22:19.490Z,100.00
2023-05-21T04:22:52.014Z,100.00
2023-05-21T04:23:24.015Z,100.00
2023-05-21T04:23:57.622Z,100.00
2023-05-21T04:24:49.974Z,100.00
2023-05-21T04:25:25.500Z,100.00
2023-05-21T04:25:57.951Z,100.00
2023-05-21T04:26:33.796Z,100.00
2023-05-21T04:27:06.028Z,100.00
2023-05-21T04:27:37.696Z,100.00
2023-05-21T04:28:09.327Z,100.00
2023-05-21T04:28:42.172Z,100.00
2023-05-21T04:29:18.168Z,100.00
2023-05-21T04:29:50.873Z,100.00
2023-05-21T04:30:24.054Z,100.00
2023-05-21T04:30:57.295Z,100.00
2023-05-21T04:31:32.230Z,100.00
2023-05-21T04:32:06.335Z,100.00
2023-05-21T04:32:39.368Z,100.00
2023-05-21T04:33:12.167Z,100.00
2023-05-21T04:33:46.081Z,100.00
2023-05-21T04:34:17.926Z,100.00
2023-05-21T04:34:49.955Z,100.00
2023-05-21T04:35:21.804Z,100.00
2023-05-21T04:35:53.645Z,100.00
2023-05-21T04:36:25.514Z,100.00
2023-05-21T04:37:00.384Z,100.00
2023-05-21T04:37:35.065Z,100.00
2023-05-21T04:38:26.016Z,100.00
2023-05-21T04:38:57.907Z,100.00
2023-05-21T04:39:31.729Z,100.00
2023-05-21T04:40:03.947Z,100.00
2023-05-21T04:40:36.990Z,100.00
2023-05-21T04:41:10.810Z,100.00
2023-05-21T04:41:42.741Z,100.00
2023-05-21T04:42:14.302Z,100.00
2023-05-21T04:42:50.804Z,100.00
2023-05-21T04:43:26.813Z,100.00
2023-05-21T04:44:01.108Z,100.00
2023-05-21T04:44:35.941Z,100.00
2023-05-21T04:45:09.260Z,100.00
2023-05-21T04:45:43.730Z,100.00
2023-05-21T04:46:15.439Z,100.00
2023-05-21T04:46:48.947Z,100.00
2023-05-21T04:47:22.912Z,100.00
2023-05-21T04:47:55.368Z,100.00
2023-05-21T04:48:27.558Z,100.00
2023-05-21T04:49:02.956Z,100.00
2023-05-21T04:49:35.013Z,100.00
2023-05-21T04:50:07.201Z,100.00
2023-05-21T04:50:39.048Z,100.00
2023-05-21T04:51:10.622Z,100.00
2023-05-21T04:51:42.199Z,100.00
2023-05-21T04:52:13.855Z,100.00
2023-05-21T04:52:45.653Z,100.00
2023-05-21T04:53:17.362Z,100.00
2023-05-21T04:53:50.321Z,100.00
2023-05-21T04:54:21.956Z,100.00
2023-05-21T04:54:54.222Z,100.00
2023-05-21T04:55:26.000Z,100.00
2023-05-21T04:55:59.423Z,100.00
2023-05-21T04:56:31.946Z,100.00
2023-05-21T04:57:03.700Z,100.00
2023-05-21T04:57:35.792Z,100.00
2023-05-21T04:58:07.715Z,100.00
2023-05-21T04:58:40.925Z,100.00
2023-05-21T04:59:12.556Z,100.00
2023-05-21T04:59:44.315Z,100.00
2023-05-21T05:00:16.553Z,100.00
2023-05-21T05:00:51.958Z,100.00
2023-05-21T05:01:23.860Z,100.00
2023-05-21T05:01:55.594Z,100.00
2023-05-21T05:02:27.199Z,100.00
2023-05-21T05:02:59.123Z,100.00
2023-05-21T05:03:31.718Z,100.00
2023-05-21T05:04:05.027Z,100.00
2023-05-21T05:04:36.738Z,100.00
2023-05-21T05:05:09.164Z,100.00
2023-05-21T05:05:40.921Z,100.00
2023-05-21T05:06:13.324Z,100.00
2023-05-21T05:06:45.001Z,100.00
2023-05-21T05:07:16.956Z,100.00
2023-05-21T05:07:48.560Z,100.00
2023-05-21T05:08:21.072Z,100.00
2023-05-21T05:08:52.929Z,100.00
2023-05-21T05:09:25.873Z,100.00
2023-05-21T05:09:57.959Z,100.00
2023-05-21T05:10:29.828Z,100.00
2023-05-21T05:11:01.446Z,100.00
2023-05-21T05:11:33.260Z,100.00
2023-05-21T05:12:05.417Z,100.00
2023-05-21T05:12:37.094Z,100.00
2023-05-21T05:13:09.868Z,100.00
2023-05-21T05:13:42.529Z,100.00
2023-05-21T05:14:14.465Z,100.00
2023-05-21T05:14:47.409Z,100.00
2023-05-21T05:15:18.983Z,100.00
2023-05-21T05:15:54.459Z,100.00
2023-05-21T05:16:26.439Z,100.00
2023-05-21T05:17:01.004Z,100.00
2023-05-21T05:17:34.448Z,100.00
2023-05-21T05:18:08.768Z,100.00
2023-05-21T05:18:40.573Z,100.00
2023-05-21T05:19:12.277Z,100.00
2023-05-21T05:19:44.009Z,100.00
2023-05-21T05:20:15.735Z,100.00
2023-05-21T05:20:47.758Z,100.00
2023-05-21T05:21:20.414Z,100.00
2023-05-21T05:21:52.054Z,100.00
2023-05-21T05:22:26.144Z,100.00
2023-05-21T05:22:57.733Z,100.00
2023-05-21T05:23:29.415Z,100.00
2023-05-21T05:24:00.987Z,100.00
2023-05-21T05:24:36.690Z,100.00
2023-05-21T05:25:08.815Z,100.00
2023-05-21T05:25:41.572Z,100.00
2023-05-21T05:26:13.928Z,100.00
2023-05-21T05:26:45.900Z,100.00
2023-05-21T05:27:18.184Z,100.00
2023-05-21T05:27:49.974Z,100.00
2023-05-21T05:28:21.893Z,100.00
2023-05-21T05:28:53.699Z,100.00
2023-05-21T05:29:25.298Z,100.00
2023-05-21T05:29:57.255Z,100.00
2023-05-21T05:30:29.315Z,100.00
2023-05-21T05:31:07.448Z,100.00
2023-05-21T05:31:39.063Z,100.00
2023-05-21T05:32:11.425Z,100.00
2023-05-21T05:32:43.010Z,100.00
2023-05-21T05:33:14.639Z,100.00
2023-05-21T05:33:46.246Z,100.00
2023-05-21T05:34:19.984Z,100.00
2023-05-21T05:34:52.932Z,100.00
2023-05-21T05:35:24.593Z,100.00
2023-05-21T05:35:56.225Z,100.00
2023-05-21T05:36:27.860Z,100.00
2023-05-21T05:36:59.724Z,100.00
2023-05-21T05:37:32.848Z,100.00
2023-05-21T05:38:04.543Z,100.00
2023-05-21T05:38:36.383Z,100.00
2023-05-21T05:39:09.009Z,100.00
2023-05-21T05:39:40.668Z,100.00
2023-05-21T05:40:12.418Z,100.00
2023-05-21T05:40:44.696Z,100.00
2023-05-21T05:41:16.422Z,100.00
2023-05-21T05:41:48.391Z,100.00
2023-05-21T05:42:20.553Z,100.00
2023-05-21T05:42:52.878Z,100.00
2023-05-21T05:43:25.672Z,100.00
2023-05-21T05:43:57.309Z,100.00
2023-05-21T05:44:31.325Z,100.00
2023-05-21T05:45:04.155Z,100.00
2023-05-21T05:45:36.009Z,100.00
2023-05-21T05:46:12.664Z,100.00
2023-05-21T05:46:44.356Z,100.00
2023-05-21T05:47:16.893Z,100.00
2023-05-21T05:47:49.121Z,100.00
2023-05-21T05:48:20.945Z,100.00
2023-05-21T05:48:52.582Z,100.00
2023-05-21T05:49:24.229Z,100.00
2023-05-21T05:49:55.955Z,100.00
2023-05-21T05:50:27.857Z,100.00
2023-05-21T05:50:59.479Z,100.00
2023-05-21T05:51:31.694Z,100.00
2023-05-21T05:52:03.915Z,100.00
2023-05-21T05:52:35.678Z,100.00
2023-05-21T05:53:07.378Z,100.00
2023-05-21T05:53:38.996Z,100.00
2023-05-21T05:54:10.669Z,100.00
2023-05-21T05:54:42.336Z,100.00
2023-05-21T05:55:14.104Z,100.00
2023-05-21T05:55:45.687Z,100.00
2023-05-21T05:56:17.832Z,100.00
2023-05-21T05:56:49.769Z,100.00
2023-05-21T05:57:21.365Z,100.00
2023-05-21T05:57:55.867Z,100.00
2023-05-21T05:58:27.478Z,100.00
2023-05-21T05:59:03.792Z,100.00
2023-05-21T05:59:36.042Z,100.00
2023-05-21T06:00:10.642Z,100.00
2023-05-21T06:00:47.673Z,100.00
2023-05-21T06:01:19.546Z,100.00
2023-05-21T06:01:51.311Z,100.00
2023-05-21T06:02:23.069Z,100.00
2023-05-21T06:02:54.850Z,100.00
2023-05-21T06:03:26.967Z,100.00
2023-05-21T06:03:58.789Z,100.00
2023-05-21T06:04:30.440Z,100.00
2023-05-21T06:05:02.914Z,100.00
2023-05-21T06:05:34.669Z,100.00
2023-05-21T06:06:06.533Z,100.00
2023-05-21T06:06:38.796Z,100.00
2023-05-21T06:07:10.466Z,100.00
2023-05-21T06:07:42.313Z,100.00
2023-05-21T06:08:13.907Z,100.00
2023-05-21T06:09:04.324Z,100.00
2023-05-21T06:09:36.107Z,100.00
2023-05-21T06:10:08.506Z,100.00
2023-05-21T06:10:40.106Z,100.00
2023-05-21T06:11:11.821Z,100.00
2023-05-21T06:11:43.483Z,100.00
2023-05-21T06:12:16.078Z,100.00
2023-05-21T06:12:48.027Z,100.00
2023-05-21T06:13:20.421Z,100.00
2023-05-21T06:13:52.578Z,100.00
2023-05-21T06:14:24.258Z,100.00
2023-05-21T06:14:55.988Z,100.00
2023-05-21T06:15:27.579Z,100.00
2023-05-21T06:15:59.244Z,100.00
2023-05-21T06:16:33.974Z,100.00
2023-05-21T06:17:05.866Z,100.00
2023-05-21T06:17:37.892Z,100.00
2023-05-21T06:18:09.576Z,100.00
2023-05-21T06:18:41.274Z,100.00
2023-05-21T06:19:13.002Z,100.00
2023-05-21T06:19:45.290Z,100.00
2023-05-21T06:20:17.198Z,100.00
2023-05-21T06:20:48.921Z,100.00
2023-05-21T06:21:21.736Z,100.00
2023-05-21T06:21:53.334Z,100.00
2023-05-21T06:22:25.678Z,100.00
2023-05-21T06:22:57.445Z,100.00
2023-05-21T06:23:29.074Z,100.00
2023-05-21T06:24:00.908Z,100.00
2023-05-21T06:24:33.841Z,100.00
2023-05-21T06:25:06.997Z,100.00
2023-05-21T06:25:40.824Z,100.00
2023-05-21T06:26:13.235Z,100.00
2023-05-21T06:26:45.938Z,100.00
2023-05-21T06:27:17.502Z,100.00
2023-05-21T06:27:49.210Z,100.00
2023-05-21T06:28:25.930Z,100.00
2023-05-21T06:28:58.661Z,100.00
2023-05-21T06:29:30.480Z,100.00
2023-05-21T06:30:02.083Z,100.00
2023-05-21T06:30:52.504Z,100.00
2023-05-21T06:31:24.648Z,100.00
2023-05-21T06:31:56.332Z,100.00
2023-05-21T06:32:28.015Z,100.00
2023-05-21T06:32:59.803Z,100.00
2023-05-21T06:33:31.961Z,100.00
2023-05-21T06:34:04.030Z,100.00
2023-05-21T06:34:35.926Z,100.00
2023-05-21T06:35:08.005Z,100.00
2023-05-21T06:35:40.356Z,100.00
2023-05-21T06:36:13.956Z,100.00
2023-05-21T06:36:48.168Z,100.00
2023-05-21T06:37:24.841Z,100.00
2023-05-21T06:37:58.158Z,100.00
2023-05-21T06:38:29.758Z,100.00
2023-05-21T06:39:01.594Z,100.00
2023-05-21T06:39:33.231Z,100.00
2023-05-21T06:40:05.441Z,100.00
2023-05-21T06:40:37.212Z,100.00
2023-05-21T06:41:09.017Z,100.00
2023-05-21T06:41:56.743Z,100.00
2023-05-21T06:42:48.708Z,99.15
2023-05-21T06:43:43.151Z,98.50
2023-05-21T06:44:15.760Z,98.16
2023-05-21T06:45:10.347Z,97.80
2023-05-21T06:45:43.867Z,96.94
2023-05-21T06:46:32.260Z,97.18
2023-05-21T06:47:04.262Z,96.01
2023-05-21T06:47:35.938Z,95.92
2023-05-21T06:48:07.810Z,95.54
2023-05-21T06:48:39.518Z,96.07
2023-05-21T06:49:14.127Z,96.62
2023-05-21T06:49:46.234Z,96.22
2023-05-21T06:50:18.855Z,96.05
2023-05-21T06:50:50.947Z,95.63
2023-05-21T06:51:22.646Z,95.56
2023-05-21T06:51:54.547Z,94.83
2023-05-21T06:52:29.397Z,95.40
2023-05-21T06:53:01.335Z,96.56
2023-05-21T06:53:33.836Z,95.72
2023-05-21T06:54:05.608Z,95.16
2023-05-21T06:54:39.263Z,95.49
2023-05-21T06:55:11.798Z,94.15
2023-05-21T06:56:08.150Z,94.76
2023-05-21T06:56:41.778Z,94.80
2023-05-21T06:57:15.249Z,94.31
2023-05-21T06:57:47.717Z,92.51
2023-05-21T06:58:19.674Z,92.01
2023-05-21T06:58:52.001Z,91.63
2023-05-21T06:59:24.099Z,90.61
2023-05-21T06:59:55.797Z,89.96
2023-05-21T07:00:27.521Z,90.06